createdAt,value
2023-01-18T00:01:13.907Z,1.70
2023-01-18T00:03:42.208Z,1.60
2023-01-18T00:06:11.121Z,1.60
2023-01-18T00:08:39.907Z,1.70
2023-01-18T00:11:07.352Z,1.60
2023-01-18T00:13:35.152Z,1.70
2023-01-18T00:16:07.569Z,1.70
2023-01-18T00:18:37.479Z,1.70
2023-01-18T00:21:07.472Z,1.80
2023-01-18T00:23:35.672Z,1.80
2023-01-18T00:26:06.486Z,1.80
2023-01-18T00:28:35.274Z,1.80
2023-01-18T00:31:15.264Z,1.90
2023-01-18T00:33:44.243Z,2.00
2023-01-18T00:36:12.856Z,2.00
2023-01-18T00:38:40.510Z,2.00
2023-01-18T00:41:07.959Z,2.00
2023-01-18T00:43:41.047Z,2.10
2023-01-18T00:46:13.207Z,2.10
2023-01-18T00:48:42.040Z,2.10
2023-01-18T00:51:14.588Z,2.20
2023-01-18T00:53:44.131Z,2.20
2023-01-18T00:56:17.570Z,2.30
2023-01-18T00:58:45.225Z,2.40
2023-01-18T01:01:13.655Z,2.40
2023-01-18T01:03:59.601Z,2.50
2023-01-18T01:06:46.644Z,2.60
2023-01-18T01:09:26.150Z,2.60
2023-01-18T01:12:12.928Z,2.70
2023-01-18T01:15:01.914Z,2.80
2023-01-18T01:17:49.192Z,2.90
2023-01-18T01:20:35.356Z,2.90
2023-01-18T01:23:27.806Z,3.00
2023-01-18T01:26:27.607Z,3.10
2023-01-18T01:28:55.026Z,3.10
2023-01-18T01:31:22.210Z,3.20
2023-01-18T01:33:49.802Z,3.20
2023-01-18T01:36:20.825Z,3.20
2023-01-18T01:38:48.258Z,3.30
2023-01-18T01:41:26.646Z,3.40
2023-01-18T01:43:56.887Z,3.40
2023-01-18T01:46:31.750Z,3.40
2023-01-18T01:49:23.985Z,3.40
2023-01-18T01:52:00.623Z,3.50
2023-01-18T01:54:40.006Z,3.50
2023-01-18T01:57:15.742Z,3.50
2023-01-18T01:59:48.049Z,3.60
2023-01-18T02:02:15.413Z,3.60
2023-01-18T02:04:45.191Z,3.60
2023-01-18T02:07:13.545Z,3.70
2023-01-18T02:09:41.673Z,3.70
2023-01-18T02:12:08.990Z,3.70
2023-01-18T02:14:36.822Z,3.70
2023-01-18T02:17:20.837Z,3.80
2023-01-18T02:20:07.188Z,3.80
2023-01-18T02:22:59.276Z,3.80
2023-01-18T02:25:48.565Z,3.90
2023-01-18T02:28:37.591Z,3.90
2023-01-18T02:31:05.201Z,3.90
2023-01-18T02:34:07.262Z,4.00
2023-01-18T02:36:44.821Z,4.00
2023-01-18T02:39:53.615Z,4.00
2023-01-18T02:42:42.737Z,4.10
2023-01-18T02:45:52.665Z,4.10
2023-01-18T02:48:23.150Z,4.10
2023-01-18T02:50:51.200Z,4.20
2023-01-18T02:53:18.949Z,4.20
2023-01-18T02:55:53.191Z,4.20
2023-01-18T02:58:29.882Z,4.30
2023-01-18T03:01:10.951Z,4.30
2023-01-18T03:03:43.150Z,4.20
2023-01-18T03:06:10.497Z,4.10
2023-01-18T03:08:43.598Z,4.10
2023-01-18T03:11:45.218Z,4.00
2023-01-18T03:14:18.693Z,3.90
2023-01-18T03:17:15.513Z,3.80
2023-01-18T03:20:05.368Z,3.80
2023-01-18T03:23:08.016Z,3.80
2023-01-18T03:25:46.082Z,3.80
2023-01-18T03:28:54.535Z,3.80
2023-01-18T03:31:52.112Z,3.70
2023-01-18T03:34:39.750Z,3.70
2023-01-18T03:37:22.160Z,3.80
2023-01-18T03:40:01.703Z,3.70
2023-01-18T03:42:37.345Z,3.80
2023-01-18T03:45:25.098Z,3.80
2023-01-18T03:47:52.967Z,3.80
2023-01-18T03:50:27.162Z,3.70
2023-01-18T03:52:59.015Z,3.80
2023-01-18T03:55:31.719Z,3.80
2023-01-18T03:58:03.174Z,3.80
2023-01-18T04:00:31.569Z,3.80
2023-01-18T04:02:59.497Z,3.80
2023-01-18T04:05:27.009Z,3.80
2023-01-18T04:07:54.387Z,3.70
2023-01-18T04:10:21.647Z,3.80
2023-01-18T04:12:49.012Z,3.80
2023-01-18T04:15:17.207Z,3.80
2023-01-18T04:17:44.656Z,3.70
2023-01-18T04:20:12.010Z,3.60
2023-01-18T04:22:39.436Z,3.60
2023-01-18T04:25:06.933Z,3.60
2023-01-18T04:27:34.468Z,3.60
2023-01-18T04:30:01.593Z,3.50
2023-01-18T04:32:29.100Z,3.40
2023-01-18T04:34:56.202Z,3.40
2023-01-18T04:37:30.310Z,3.40
2023-01-18T04:39:58.129Z,3.40
2023-01-18T04:42:25.997Z,3.40
2023-01-18T04:44:53.529Z,3.40
2023-01-18T04:47:20.958Z,3.50
2023-01-18T04:49:48.206Z,3.50
2023-01-18T04:52:15.667Z,3.60
2023-01-18T04:54:43.807Z,3.50
2023-01-18T04:57:11.322Z,3.40
2023-01-18T04:59:39.308Z,3.40
2023-01-18T05:02:06.822Z,3.40
2023-01-18T05:04:34.002Z,3.30
2023-01-18T05:07:02.311Z,3.20
2023-01-18T05:09:29.431Z,3.20
2023-01-18T05:11:56.857Z,3.10
2023-01-18T05:14:23.999Z,3.10
2023-01-18T05:16:51.392Z,3.10
2023-01-18T05:19:18.580Z,3.00
2023-01-18T05:21:45.962Z,3.00
2023-01-18T05:24:13.082Z,2.80
2023-01-18T05:26:40.500Z,2.80
2023-01-18T05:29:07.994Z,2.70
2023-01-18T05:31:35.576Z,2.70
2023-01-18T05:34:02.912Z,2.60
2023-01-18T05:36:30.527Z,2.60
2023-01-18T05:38:57.624Z,2.60
2023-01-18T05:41:25.091Z,2.70
2023-01-18T05:43:52.208Z,2.70
2023-01-18T05:46:19.635Z,2.70
2023-01-18T05:48:46.811Z,2.70
2023-01-18T05:51:14.403Z,2.70
2023-01-18T05:53:41.782Z,2.60
2023-01-18T05:56:09.669Z,2.60
2023-01-18T05:58:38.360Z,2.60
2023-01-18T06:01:10.185Z,2.50
2023-01-18T06:03:37.402Z,2.40
2023-01-18T06:06:05.201Z,2.40
2023-01-18T06:08:33.018Z,2.50
2023-01-18T06:11:00.776Z,2.50
2023-01-18T06:13:30.906Z,2.50
2023-01-18T06:15:59.846Z,2.60
2023-01-18T06:18:29.226Z,2.60
2023-01-18T06:21:00.996Z,2.50
2023-01-18T06:23:29.741Z,2.50
2023-01-18T06:25:57.137Z,2.50
2023-01-18T06:28:24.291Z,2.50
2023-01-18T06:30:56.416Z,2.50
2023-01-18T06:33:24.249Z,2.50
2023-01-18T06:35:52.312Z,2.40
2023-01-18T06:38:20.622Z,2.30
2023-01-18T06:40:48.167Z,2.30
2023-01-18T06:43:16.074Z,2.20
2023-01-18T06:45:43.822Z,2.30
2023-01-18T06:48:10.975Z,2.30
2023-01-18T06:50:38.540Z,2.30
2023-01-18T06:53:05.638Z,2.40
2023-01-18T06:55:34.696Z,2.30
2023-01-18T06:58:02.671Z,2.30
2023-01-18T07:00:30.181Z,2.40
2023-01-18T07:02:58.566Z,2.40
2023-01-18T07:05:26.246Z,2.40
2023-01-18T07:07:53.401Z,2.40
2023-01-18T07:10:20.843Z,2.40
2023-01-18T07:12:48.933Z,2.40
2023-01-18T07:15:21.922Z,2.40
2023-01-18T07:17:50.473Z,2.40
2023-01-18T07:20:18.770Z,2.40
2023-01-18T07:22:45.999Z,2.50
2023-01-18T07:25:13.573Z,2.40
2023-01-18T07:27:44.294Z,2.40
2023-01-18T07:30:12.491Z,2.40
2023-01-18T07:32:40.330Z,2.50
2023-01-18T07:35:08.139Z,2.50
2023-01-18T07:37:36.098Z,2.60
2023-01-18T07:40:03.993Z,2.50
2023-01-18T07:42:31.234Z,2.40
2023-01-18T07:44:59.755Z,2.40
2023-01-18T07:47:27.088Z,2.40
2023-01-18T07:49:54.733Z,2.40
2023-01-18T07:52:21.863Z,2.50
2023-01-18T07:54:49.299Z,2.50
2023-01-18T07:57:16.406Z,2.50
2023-01-18T07:59:43.785Z,2.40
2023-01-18T08:02:13.476Z,2.50
2023-01-18T08:04:41.937Z,2.50
2023-01-18T08:07:09.619Z,2.50
2023-01-18T08:09:37.100Z,2.60
2023-01-18T08:12:04.351Z,2.60
2023-01-18T08:14:31.715Z,2.60
2023-01-18T08:16:58.972Z,2.50
2023-01-18T08:19:26.458Z,2.60
2023-01-18T08:21:53.639Z,2.60
2023-01-18T08:24:21.063Z,2.60
2023-01-18T08:26:48.312Z,2.60
2023-01-18T08:29:15.673Z,2.70
2023-01-18T08:31:42.786Z,2.60
2023-01-18T08:34:10.303Z,2.50
2023-01-18T08:36:37.484Z,2.70
2023-01-18T08:39:05.052Z,2.60
2023-01-18T08:41:32.322Z,2.60
2023-01-18T08:44:00.177Z,2.60
2023-01-18T08:46:28.487Z,2.70
2023-01-18T08:48:57.763Z,2.70
2023-01-18T08:51:26.235Z,2.60
2023-01-18T08:53:57.488Z,2.70
2023-01-18T08:56:24.980Z,2.60
2023-01-18T08:58:52.520Z,2.60
2023-01-18T09:01:20.398Z,2.70
2023-01-18T09:03:48.830Z,2.60
2023-01-18T09:06:16.862Z,2.70
2023-01-18T09:08:47.672Z,2.70
2023-01-18T09:11:15.943Z,2.70
2023-01-18T09:13:59.312Z,2.80
2023-01-18T09:16:28.093Z,2.70
2023-01-18T09:18:56.406Z,2.70
2023-01-18T09:21:24.054Z,2.60
2023-01-18T09:23:51.456Z,2.50
2023-01-18T09:26:21.085Z,2.80
2023-01-18T09:28:52.490Z,2.70
2023-01-18T09:31:25.857Z,2.70
2023-01-18T09:33:55.350Z,2.80
2023-01-18T09:36:26.733Z,2.60
2023-01-18T09:38:57.425Z,2.50
2023-01-18T09:41:44.452Z,2.50
2023-01-18T09:44:29.409Z,2.50
2023-01-18T09:47:04.867Z,2.50
2023-01-18T09:49:46.482Z,2.50
2023-01-18T09:52:25.407Z,2.60
2023-01-18T09:55:13.045Z,2.50
2023-01-18T09:57:58.623Z,2.40
2023-01-18T10:00:33.423Z,2.50
2023-01-18T10:03:08.499Z,2.50
2023-01-18T10:05:53.839Z,2.40
2023-01-18T10:08:25.746Z,2.50
2023-01-18T10:11:13.515Z,2.50
2023-01-18T10:13:53.869Z,2.50
2023-01-18T10:16:21.357Z,2.40
2023-01-18T10:18:53.326Z,2.40
2023-01-18T10:21:33.849Z,2.40
2023-01-18T10:24:29.006Z,2.30
2023-01-18T10:27:13.042Z,2.50
2023-01-18T10:29:42.752Z,2.40
2023-01-18T10:32:17.697Z,2.40
2023-01-18T10:34:49.865Z,2.50
2023-01-18T10:37:29.828Z,2.40
2023-01-18T10:40:03.238Z,2.40
2023-01-18T10:42:45.646Z,2.40
2023-01-18T10:45:32.950Z,2.50
2023-01-18T10:48:30.289Z,2.50
2023-01-18T10:51:06.097Z,2.40
2023-01-18T10:53:36.542Z,2.40
2023-01-18T10:56:17.277Z,2.50
2023-01-18T10:58:46.470Z,2.50
2023-01-18T11:01:27.571Z,2.70
2023-01-18T11:04:05.917Z,2.70
2023-01-18T11:06:56.727Z,2.60
2023-01-18T11:09:51.511Z,2.50
2023-01-18T11:12:45.634Z,2.70
2023-01-18T11:15:15.879Z,2.90
2023-01-18T11:18:10.225Z,2.70
2023-01-18T11:20:50.699Z,2.80
2023-01-18T11:23:21.881Z,2.70
2023-01-18T11:25:52.088Z,2.60
2023-01-18T11:28:40.131Z,2.70
2023-01-18T11:31:15.174Z,2.70
2023-01-18T11:33:59.958Z,2.80
2023-01-18T11:36:43.230Z,2.80
2023-01-18T11:39:26.234Z,2.90
2023-01-18T11:42:35.042Z,3.00
2023-01-18T11:45:19.914Z,2.90
2023-01-18T11:48:23.307Z,3.00
2023-01-18T11:51:00.872Z,2.90
2023-01-18T11:54:04.586Z,2.70
2023-01-18T11:56:41.138Z,2.80
2023-01-18T11:59:32.079Z,2.90
2023-01-18T12:02:10.600Z,3.00
2023-01-18T12:04:56.536Z,3.00
2023-01-18T12:07:54.385Z,2.90
2023-01-18T12:10:27.876Z,2.90
2023-01-18T12:12:54.947Z,3.00
2023-01-18T12:15:49.477Z,3.10
2023-01-18T12:18:31.599Z,3.20
2023-01-18T12:21:15.979Z,3.20
2023-01-18T12:23:49.190Z,3.20
2023-01-18T12:26:41.409Z,3.20
2023-01-18T12:29:24.241Z,3.10
2023-01-18T12:32:20.468Z,3.10
2023-01-18T12:34:58.326Z,3.10
2023-01-18T12:37:40.529Z,3.00
2023-01-18T12:40:16.184Z,3.00
2023-01-18T12:43:14.431Z,3.20
2023-01-18T12:46:01.238Z,3.10
2023-01-18T12:48:40.843Z,3.20
2023-01-18T12:51:14.436Z,3.10
2023-01-18T12:54:11.379Z,2.90
2023-01-18T12:56:42.906Z,2.90
2023-01-18T12:59:20.506Z,2.80
2023-01-18T13:02:16.344Z,2.90
2023-01-18T13:04:50.380Z,2.80
2023-01-18T13:07:25.389Z,2.90
2023-01-18T13:09:53.461Z,2.80
2023-01-18T13:12:20.722Z,2.80
2023-01-18T13:15:26.479Z,2.80
2023-01-18T13:18:08.115Z,2.80
2023-01-18T13:20:44.923Z,2.80
2023-01-18T13:23:59.976Z,2.70
2023-01-18T13:26:29.844Z,2.80
2023-01-18T13:29:19.963Z,2.80
2023-01-18T13:31:47.806Z,2.80
2023-01-18T13:34:31.656Z,2.60
2023-01-18T13:37:14.009Z,2.50
2023-01-18T13:39:47.730Z,2.40
2023-01-18T13:42:20.985Z,2.40
2023-01-18T13:44:50.092Z,2.20
2023-01-18T13:47:36.111Z,2.10
2023-01-18T13:50:05.233Z,2.10
2023-01-18T13:52:35.697Z,2.00
2023-01-18T13:55:23.177Z,2.10
2023-01-18T13:57:55.525Z,1.90
2023-01-18T14:00:26.169Z,1.80
2023-01-18T14:03:03.935Z,1.80
2023-01-18T14:05:38.730Z,1.70
2023-01-18T14:08:06.635Z,1.70
2023-01-18T14:10:37.819Z,1.70
2023-01-18T14:13:12.209Z,1.70
2023-01-18T14:15:42.046Z,1.70
2023-01-18T14:18:30.170Z,1.70
2023-01-18T14:21:22.209Z,1.80
2023-01-18T14:24:07.918Z,1.80
2023-01-18T14:26:38.259Z,1.80
2023-01-18T14:29:17.865Z,1.70
2023-01-18T14:31:55.885Z,1.70
2023-01-18T14:34:38.043Z,1.70
2023-01-18T14:37:30.862Z,1.70
2023-01-18T14:40:07.549Z,1.70
2023-01-18T14:42:38.256Z,1.70
2023-01-18T14:45:06.757Z,1.70
2023-01-18T14:47:34.829Z,1.80
2023-01-18T14:50:04.351Z,1.90
2023-01-18T14:52:34.457Z,1.90
2023-01-18T14:55:02.618Z,1.90
2023-01-18T14:57:30.032Z,1.90
2023-01-18T15:00:16.310Z,1.90
2023-01-18T15:02:43.893Z,1.90
2023-01-18T15:05:13.982Z,1.90
2023-01-18T15:07:41.488Z,1.90
2023-01-18T15:10:09.989Z,1.90
2023-01-18T15:12:38.844Z,1.80
2023-01-18T15:15:23.098Z,1.80
2023-01-18T15:17:50.573Z,1.80
2023-01-18T15:20:18.167Z,1.80
2023-01-18T15:22:45.383Z,1.80
2023-01-18T15:25:30.686Z,1.90
2023-01-18T15:28:11.718Z,1.90
2023-01-18T15:30:54.251Z,2.00
2023-01-18T15:33:24.945Z,2.00
2023-01-18T15:36:00.580Z,2.00
2023-01-18T15:38:28.294Z,2.10
2023-01-18T15:41:09.651Z,2.00
2023-01-18T15:43:42.008Z,2.00
2023-01-18T15:46:14.013Z,1.90
2023-01-18T15:48:56.061Z,1.90
2023-01-18T15:51:43.802Z,1.90
2023-01-18T15:54:22.952Z,1.90
2023-01-18T15:56:50.711Z,2.00
2023-01-18T15:59:22.541Z,2.00
2023-01-18T16:02:18.754Z,2.00
2023-01-18T16:04:46.475Z,2.00
2023-01-18T16:07:37.805Z,2.00
2023-01-18T16:10:30.360Z,2.00
2023-01-18T16:13:35.923Z,1.90
2023-01-18T16:16:14.189Z,2.00
2023-01-18T16:18:46.348Z,2.00
2023-01-18T16:21:22.527Z,2.00
2023-01-18T16:23:52.200Z,2.00
2023-01-18T16:26:24.289Z,2.00
2023-01-18T16:28:51.960Z,2.00
2023-01-18T16:31:22.964Z,2.00
2023-01-18T16:33:50.521Z,2.00
2023-01-18T16:36:19.742Z,2.00
2023-01-18T16:38:47.201Z,1.90
2023-01-18T16:41:15.014Z,1.90
2023-01-18T16:43:43.877Z,1.90
2023-01-18T16:46:11.844Z,1.80
2023-01-18T16:48:39.372Z,1.80
2023-01-18T16:51:13.373Z,1.90
2023-01-18T16:53:40.886Z,1.80
2023-01-18T16:56:09.448Z,1.80
2023-01-18T16:58:37.048Z,1.80
2023-01-18T17:01:15.769Z,1.70
2023-01-18T17:03:44.662Z,1.70
2023-01-18T17:06:19.983Z,1.70
2023-01-18T17:08:49.150Z,1.70
2023-01-18T17:11:17.545Z,1.70
2023-01-18T17:13:45.064Z,1.80
2023-01-18T17:16:18.652Z,1.70
2023-01-18T17:18:46.618Z,1.70
2023-01-18T17:21:14.239Z,1.70
2023-01-18T17:23:41.744Z,1.70
2023-01-18T17:26:13.736Z,1.70
2023-01-18T17:28:41.152Z,1.60
2023-01-18T17:31:08.666Z,1.60
2023-01-18T17:33:39.268Z,1.70
2023-01-18T17:36:08.906Z,1.70
2023-01-18T17:38:37.191Z,1.60
2023-01-18T17:41:05.020Z,1.70
2023-01-18T17:43:34.693Z,1.70
2023-01-18T17:46:07.671Z,1.80
2023-01-18T17:48:35.456Z,1.80
2023-01-18T17:51:08.872Z,1.80
2023-01-18T17:53:37.795Z,1.90
2023-01-18T17:56:13.001Z,1.80
2023-01-18T17:58:41.018Z,1.80
2023-01-18T18:01:11.067Z,1.80
2023-01-18T18:03:40.331Z,1.70
2023-01-18T18:06:07.965Z,1.60
2023-01-18T18:08:35.921Z,1.60
2023-01-18T18:11:07.122Z,1.60
2023-01-18T18:13:34.672Z,1.70
2023-01-18T18:16:02.107Z,1.80
2023-01-18T18:18:29.624Z,1.80
2023-01-18T18:20:59.622Z,1.80
2023-01-18T18:23:28.220Z,1.90
2023-01-18T18:25:56.374Z,1.90
2023-01-18T18:28:25.496Z,1.90
2023-01-18T18:30:53.778Z,1.90
2023-01-18T18:33:22.978Z,2.00
2023-01-18T18:35:51.245Z,2.00
2023-01-18T18:38:22.603Z,1.90
2023-01-18T18:40:51.179Z,1.90
2023-01-18T18:43:19.188Z,1.90
2023-01-18T18:45:47.585Z,1.90
2023-01-18T18:48:15.125Z,1.90
2023-01-18T18:50:42.316Z,1.90
2023-01-18T18:53:09.720Z,1.90
2023-01-18T18:55:36.991Z,1.90
2023-01-18T18:58:05.742Z,1.90
2023-01-18T19:00:32.931Z,1.90
2023-01-18T19:03:03.038Z,2.00
2023-01-18T19:05:31.910Z,2.00
2023-01-18T19:07:59.740Z,2.00
2023-01-18T19:10:30.290Z,2.00
2023-01-18T19:12:59.493Z,2.00
2023-01-18T19:15:26.869Z,2.00
2023-01-18T19:17:54.347Z,2.00
2023-01-18T19:20:21.901Z,2.00
2023-01-18T19:22:50.348Z,2.00
2023-01-18T19:25:18.160Z,2.00
2023-01-18T19:27:45.769Z,2.00
2023-01-18T19:30:19.056Z,2.00
2023-01-18T19:32:48.168Z,2.10
2023-01-18T19:35:16.361Z,2.10
2023-01-18T19:37:45.164Z,2.20
2023-01-18T19:40:13.605Z,2.20
2023-01-18T19:42:41.255Z,2.30
2023-01-18T19:45:11.480Z,2.30
2023-01-18T19:47:42.036Z,2.30
2023-01-18T19:50:09.856Z,2.40
2023-01-18T19:52:37.425Z,2.40
2023-01-18T19:55:05.325Z,2.40
2023-01-18T19:57:33.033Z,2.40
2023-01-18T20:00:04.016Z,2.40
2023-01-18T20:02:40.630Z,2.40
2023-01-18T20:05:08.301Z,2.50
2023-01-18T20:07:38.903Z,2.60
2023-01-18T20:10:07.575Z,2.50
2023-01-18T20:12:35.127Z,2.60
2023-01-18T20:15:02.740Z,2.50
2023-01-18T20:17:30.923Z,2.50
2023-01-18T20:19:58.065Z,2.50
2023-01-18T20:22:25.492Z,2.60
2023-01-18T20:24:52.653Z,2.60
2023-01-18T20:27:20.184Z,2.60
2023-01-18T20:29:47.528Z,2.60
2023-01-18T20:32:16.971Z,2.60
2023-01-18T20:34:46.863Z,2.60
2023-01-18T20:37:15.929Z,2.60
2023-01-18T20:39:43.111Z,2.60
2023-01-18T20:42:10.793Z,2.60
2023-01-18T20:44:38.197Z,2.70
2023-01-18T20:47:05.715Z,2.70
2023-01-18T20:49:38.440Z,2.70
2023-01-18T20:52:07.471Z,2.80
2023-01-18T20:54:36.281Z,2.80
2023-01-18T20:57:05.645Z,2.80
2023-01-18T20:59:33.251Z,2.90
2023-01-18T21:02:01.945Z,2.90
2023-01-18T21:04:29.352Z,2.90
2023-01-18T21:06:59.630Z,2.90
2023-01-18T21:09:26.884Z,2.90
2023-01-18T21:11:54.392Z,3.00
2023-01-18T21:14:21.560Z,3.00
2023-01-18T21:16:49.168Z,3.00
2023-01-18T21:19:16.447Z,3.10
2023-01-18T21:21:44.639Z,3.00
2023-01-18T21:24:11.889Z,3.00
2023-01-18T21:26:39.461Z,3.10
2023-01-18T21:29:06.735Z,3.10
2023-01-18T21:31:34.310Z,3.10
2023-01-18T21:34:01.479Z,3.10
2023-01-18T21:36:28.900Z,3.20
2023-01-18T21:38:56.266Z,3.20
2023-01-18T21:41:42.481Z,3.20
2023-01-18T21:44:30.902Z,3.20
2023-01-18T21:46:59.016Z,3.30
2023-01-18T21:50:15.328Z,3.30
2023-01-18T21:52:51.173Z,3.40
2023-01-18T21:55:19.314Z,3.40
2023-01-18T21:58:06.665Z,3.40
2023-01-18T22:00:39.079Z,3.50
2023-01-18T22:03:06.924Z,3.50
2023-01-18T22:05:34.123Z,3.50
2023-01-18T22:08:01.946Z,3.50
2023-01-18T22:10:29.367Z,3.50
2023-01-18T22:12:56.903Z,3.50
2023-01-18T22:15:24.213Z,3.50
2023-01-18T22:17:51.710Z,3.50
2023-01-18T22:20:18.972Z,3.50
2023-01-18T22:22:46.598Z,3.50
2023-01-18T22:25:13.971Z,3.50
2023-01-18T22:27:41.387Z,3.50
2023-01-18T22:30:09.420Z,3.50
2023-01-18T22:32:36.816Z,3.60
2023-01-18T22:35:04.172Z,3.50
2023-01-18T22:37:32.004Z,3.60
2023-01-18T22:39:59.180Z,3.60
2023-01-18T22:42:27.479Z,3.60
2023-01-18T22:44:54.607Z,3.60
2023-01-18T22:47:22.107Z,3.70
2023-01-18T22:49:49.304Z,3.70
2023-01-18T22:52:16.727Z,3.60
2023-01-18T22:54:43.975Z,3.60
2023-01-18T22:57:11.345Z,3.60
2023-01-18T22:59:39.287Z,3.60
2023-01-18T23:02:06.771Z,3.60
2023-01-18T23:04:34.420Z,3.50
2023-01-18T23:07:02.096Z,3.50
2023-01-18T23:09:29.489Z,3.50
2023-01-18T23:11:57.026Z,3.50
2023-01-18T23:14:42.617Z,3.50
2023-01-18T23:17:30.138Z,3.50
2023-01-18T23:19:57.358Z,3.50
2023-01-18T23:22:24.859Z,3.50
2023-01-18T23:24:52.007Z,3.50
2023-01-18T23:27:19.610Z,3.50
2023-01-18T23:29:51.473Z,3.60
2023-01-18T23:32:19.001Z,3.60
2023-01-18T23:34:47.794Z,3.50
2023-01-18T23:37:15.214Z,3.60
2023-01-18T23:40:00.744Z,3.60
2023-01-18T23:42:46.447Z,3.60
2023-01-18T23:45:32.483Z,3.60
2023-01-18T23:48:32.000Z,3.60
2023-01-18T23:51:18.049Z,3.70
2023-01-18T23:54:04.401Z,3.60
2023-01-18T23:56:32.391Z,3.60
2023-01-18T23:59:00.115Z,3.60
